sensor_id;sensor_type;location;lat;lon;timestamp;P1;durP1;ratioP1;P2;durP2;ratioP2
1503;SDS011;743;47.076;15.494;2023-02-18T00:01:07;263.50;;;149.23;;
1503;SDS011;743;47.076;15.494;2023-02-18T00:03:36;259.23;;;143.65;;
1503;SDS011;743;47.076;15.494;2023-02-18T00:06:11;300.55;;;150.98;;
1503;SDS011;743;47.076;15.494;2023-02-18T00:08:42;247.48;;;138.88;;
1503;SDS011;743;47.076;15.494;2023-02-18T00:11:10;269.08;;;144.18;;
1503;SDS011;743;47.076;15.494;2023-02-18T00:13:40;261.23;;;138.68;;
1503;SDS011;743;47.076;15.494;2023-02-18T00:16:10;271.35;;;143.38;;
1503;SDS011;743;47.076;15.494;2023-02-18T00:18:40;267.38;;;138.20;;
1503;SDS011;743;47.076;15.494;2023-02-18T00:21:09;278.02;;;139.88;;
1503;SDS011;743;47.076;15.494;2023-02-18T00:23:41;264.60;;;136.25;;
1503;SDS011;743;47.076;15.494;2023-02-18T00:26:11;275.08;;;137.25;;
1503;SDS011;743;47.076;15.494;2023-02-18T00:28:43;269.55;;;133.13;;
1503;SDS011;743;47.076;15.494;2023-02-18T00:31:14;265.25;;;133.82;;
1503;SDS011;743;47.076;15.494;2023-02-18T00:33:45;270.02;;;141.45;;
1503;SDS011;743;47.076;15.494;2023-02-18T00:36:13;266.90;;;133.68;;
1503;SDS011;743;47.076;15.494;2023-02-18T00:38:45;267.25;;;133.10;;
1503;SDS011;743;47.076;15.494;2023-02-18T00:41:15;274.02;;;135.98;;
1503;SDS011;743;47.076;15.494;2023-02-18T00:43:47;266.00;;;133.33;;
1503;SDS011;743;47.076;15.494;2023-02-18T00:46:22;192.95;;;93.38;;
1503;SDS011;743;47.076;15.494;2023-02-18T00:49:15;260.73;;;128.82;;
1503;SDS011;743;47.076;15.494;2023-02-18T00:51:47;259.52;;;129.23;;
1503;SDS011;743;47.076;15.494;2023-02-18T00:54:17;277.30;;;132.48;;
1503;SDS011;743;47.076;15.494;2023-02-18T00:56:46;265.35;;;126.70;;
1503;SDS011;743;47.076;15.494;2023-02-18T00:59:16;254.50;;;124.95;;
1503;SDS011;743;47.076;15.494;2023-02-18T01:04:12;255.35;;;124.97;;
1503;SDS011;743;47.076;15.494;2023-02-18T01:06:43;258.83;;;126.20;;
1503;SDS011;743;47.076;15.494;2023-02-18T01:09:17;262.02;;;128.50;;
1503;SDS011;743;47.076;15.494;2023-02-18T01:11:48;253.77;;;121.22;;
1503;SDS011;743;47.076;15.494;2023-02-18T01:14:17;257.50;;;125.57;;
1503;SDS011;743;47.076;15.494;2023-02-18T01:16:49;251.43;;;124.35;;
1503;SDS011;743;47.076;15.494;2023-02-18T01:19:21;274.42;;;130.20;;
1503;SDS011;743;47.076;15.494;2023-02-18T01:21:49;250.20;;;120.45;;
1503;SDS011;743;47.076;15.494;2023-02-18T01:24:21;265.75;;;128.00;;
1503;SDS011;743;47.076;15.494;2023-02-18T01:26:50;268.17;;;127.38;;
1503;SDS011;743;47.076;15.494;2023-02-18T01:29:24;268.77;;;129.85;;
1503;SDS011;743;47.076;15.494;2023-02-18T01:31:53;242.88;;;117.80;;
1503;SDS011;743;47.076;15.494;2023-02-18T01:34:22;255.00;;;121.87;;
1503;SDS011;743;47.076;15.494;2023-02-18T01:36:51;261.92;;;123.82;;
1503;SDS011;743;47.076;15.494;2023-02-18T01:39:22;256.30;;;120.60;;
1503;SDS011;743;47.076;15.494;2023-02-18T01:41:53;233.27;;;115.90;;
1503;SDS011;743;47.076;15.494;2023-02-18T01:44:23;254.60;;;118.47;;
1503;SDS011;743;47.076;15.494;2023-02-18T01:47:08;265.42;;;123.05;;
1503;SDS011;743;47.076;15.494;2023-02-18T01:49:38;254.63;;;118.32;;
1503;SDS011;743;47.076;15.494;2023-02-18T01:52:15;250.07;;;114.40;;
1503;SDS011;743;47.076;15.494;2023-02-18T01:54:55;258.25;;;120.97;;
1503;SDS011;743;47.076;15.494;2023-02-18T01:57:30;264.05;;;121.50;;
1503;SDS011;743;47.076;15.494;2023-02-18T02:00:06;257.48;;;121.10;;
1503;SDS011;743;47.076;15.494;2023-02-18T02:02:38;254.52;;;120.43;;
1503;SDS011;743;47.076;15.494;2023-02-18T02:05:11;251.13;;;118.93;;
1503;SDS011;743;47.076;15.494;2023-02-18T02:07:41;258.77;;;124.60;;
1503;SDS011;743;47.076;15.494;2023-02-18T02:10:13;254.35;;;127.38;;
1503;SDS011;743;47.076;15.494;2023-02-18T02:12:45;256.23;;;125.82;;
1503;SDS011;743;47.076;15.494;2023-02-18T02:15:23;246.30;;;117.15;;
1503;SDS011;743;47.076;15.494;2023-02-18T02:27:10;248.45;;;111.60;;
1503;SDS011;743;47.076;15.494;2023-02-18T02:35:48;256.75;;;119.78;;
1503;SDS011;743;47.076;15.494;2023-02-18T02:38:24;255.48;;;115.72;;
1503;SDS011;743;47.076;15.494;2023-02-18T02:41:01;265.27;;;123.32;;
1503;SDS011;743;47.076;15.494;2023-02-18T02:43:41;266.35;;;127.07;;
1503;SDS011;743;47.076;15.494;2023-02-18T02:46:18;250.77;;;118.88;;
1503;SDS011;743;47.076;15.494;2023-02-18T02:48:57;262.30;;;118.10;;
1503;SDS011;743;47.076;15.494;2023-02-18T02:51:35;257.40;;;123.07;;
1503;SDS011;743;47.076;15.494;2023-02-18T02:54:09;242.27;;;116.68;;
1503;SDS011;743;47.076;15.494;2023-02-18T02:56:41;256.33;;;122.15;;
1503;SDS011;743;47.076;15.494;2023-02-18T02:59:14;239.93;;;115.47;;
1503;SDS011;743;47.076;15.494;2023-02-18T03:01:54;259.63;;;122.15;;
1503;SDS011;743;47.076;15.494;2023-02-18T03:04:45;250.23;;;120.03;;
1503;SDS011;743;47.076;15.494;2023-02-18T03:10:49;270.30;;;123.32;;
1503;SDS011;743;47.076;15.494;2023-02-18T03:13:29;176.60;;;83.88;;
1503;SDS011;743;47.076;15.494;2023-02-18T03:16:16;264.10;;;120.15;;
1503;SDS011;743;47.076;15.494;2023-02-18T03:18:54;268.98;;;125.22;;
1503;SDS011;743;47.076;15.494;2023-02-18T03:21:28;274.17;;;124.20;;
1503;SDS011;743;47.076;15.494;2023-02-18T03:23:59;265.40;;;123.93;;
1503;SDS011;743;47.076;15.494;2023-02-18T03:26:31;261.42;;;122.35;;
1503;SDS011;743;47.076;15.494;2023-02-18T03:29:04;274.27;;;127.15;;
1503;SDS011;743;47.076;15.494;2023-02-18T03:31:36;267.75;;;125.50;;
1503;SDS011;743;47.076;15.494;2023-02-18T03:34:08;273.58;;;131.40;;
1503;SDS011;743;47.076;15.494;2023-02-18T03:36:39;271.73;;;125.95;;
1503;SDS011;743;47.076;15.494;2023-02-18T03:39:10;265.92;;;125.30;;
1503;SDS011;743;47.076;15.494;2023-02-18T03:41:45;260.38;;;121.70;;
1503;SDS011;743;47.076;15.494;2023-02-18T03:44:18;256.50;;;122.50;;
1503;SDS011;743;47.076;15.494;2023-02-18T03:46:49;260.95;;;123.10;;
1503;SDS011;743;47.076;15.494;2023-02-18T03:49:18;261.48;;;126.88;;
1503;SDS011;743;47.076;15.494;2023-02-18T03:51:45;261.00;;;121.45;;
1503;SDS011;743;47.076;15.494;2023-02-18T03:54:14;275.98;;;129.55;;
1503;SDS011;743;47.076;15.494;2023-02-18T03:56:43;261.98;;;121.50;;
1503;SDS011;743;47.076;15.494;2023-02-18T03:59:15;252.13;;;115.53;;
1503;SDS011;743;47.076;15.494;2023-02-18T04:01:44;255.35;;;118.97;;
1503;SDS011;743;47.076;15.494;2023-02-18T04:04:12;268.15;;;120.65;;
1503;SDS011;743;47.076;15.494;2023-02-18T04:06:40;258.67;;;118.85;;
1503;SDS011;743;47.076;15.494;2023-02-18T04:11:50;268.00;;;117.90;;
1503;SDS011;743;47.076;15.494;2023-02-18T04:14:18;273.20;;;123.38;;
1503;SDS011;743;47.076;15.494;2023-02-18T04:16:47;274.38;;;128.50;;
1503;SDS011;743;47.076;15.494;2023-02-18T04:19:20;266.67;;;120.85;;
1503;SDS011;743;47.076;15.494;2023-02-18T04:21:47;271.20;;;125.32;;
1503;SDS011;743;47.076;15.494;2023-02-18T04:24:15;270.88;;;125.10;;
1503;SDS011;743;47.076;15.494;2023-02-18T04:26:54;271.95;;;125.32;;
1503;SDS011;743;47.076;15.494;2023-02-18T04:29:23;265.63;;;120.65;;
1503;SDS011;743;47.076;15.494;2023-02-18T04:31:53;277.02;;;129.07;;
1503;SDS011;743;47.076;15.494;2023-02-18T04:34:27;277.20;;;126.35;;
1503;SDS011;743;47.076;15.494;2023-02-18T04:36:54;278.30;;;129.65;;
1503;SDS011;743;47.076;15.494;2023-02-18T04:41:53;275.52;;;121.38;;
1503;SDS011;743;47.076;15.494;2023-02-18T04:44:22;281.10;;;129.13;;
1503;SDS011;743;47.076;15.494;2023-02-18T04:46:51;274.70;;;126.20;;
1503;SDS011;743;47.076;15.494;2023-02-18T04:49:18;270.33;;;130.20;;
1503;SDS011;743;47.076;15.494;2023-02-18T04:51:46;282.33;;;133.00;;
1503;SDS011;743;47.076;15.494;2023-02-18T04:54:13;272.60;;;129.93;;
1503;SDS011;743;47.076;15.494;2023-02-18T04:56:41;288.17;;;135.07;;
1503;SDS011;743;47.076;15.494;2023-02-18T04:59:10;279.88;;;131.68;;
1503;SDS011;743;47.076;15.494;2023-02-18T05:01:38;278.58;;;131.15;;
1503;SDS011;743;47.076;15.494;2023-02-18T05:04:07;277.75;;;127.50;;
1503;SDS011;743;47.076;15.494;2023-02-18T05:06:34;279.00;;;131.13;;
1503;SDS011;743;47.076;15.494;2023-02-18T05:09:07;264.30;;;127.03;;
1503;SDS011;743;47.076;15.494;2023-02-18T05:11:35;278.23;;;128.90;;
1503;SDS011;743;47.076;15.494;2023-02-18T05:14:04;266.30;;;127.78;;
1503;SDS011;743;47.076;15.494;2023-02-18T05:16:35;278.88;;;132.82;;
1503;SDS011;743;47.076;15.494;2023-02-18T05:19:06;276.52;;;128.18;;
1503;SDS011;743;47.076;15.494;2023-02-18T05:21:35;272.08;;;127.70;;
1503;SDS011;743;47.076;15.494;2023-02-18T05:24:04;277.48;;;133.82;;
1503;SDS011;743;47.076;15.494;2023-02-18T05:26:32;284.65;;;135.00;;
1503;SDS011;743;47.076;15.494;2023-02-18T05:29:04;275.58;;;130.90;;
1503;SDS011;743;47.076;15.494;2023-02-18T05:31:37;279.88;;;133.77;;
1503;SDS011;743;47.076;15.494;2023-02-18T05:34:05;263.75;;;126.45;;
1503;SDS011;743;47.076;15.494;2023-02-18T05:36:33;265.45;;;124.90;;
1503;SDS011;743;47.076;15.494;2023-02-18T05:39:03;279.52;;;133.57;;
1503;SDS011;743;47.076;15.494;2023-02-18T05:41:30;270.98;;;125.22;;
1503;SDS011;743;47.076;15.494;2023-02-18T05:43:59;278.23;;;132.02;;
1503;SDS011;743;47.076;15.494;2023-02-18T05:46:46;293.25;;;147.80;;
1503;SDS011;743;47.076;15.494;2023-02-18T05:49:15;278.42;;;140.07;;
1503;SDS011;743;47.076;15.494;2023-02-18T05:51:45;279.83;;;132.00;;
1503;SDS011;743;47.076;15.494;2023-02-18T05:54:14;252.88;;;121.82;;
1503;SDS011;743;47.076;15.494;2023-02-18T05:56:43;286.55;;;131.48;;
1503;SDS011;743;47.076;15.494;2023-02-18T05:59:12;285.88;;;135.10;;
1503;SDS011;743;47.076;15.494;2023-02-18T06:04:33;266.60;;;122.63;;
1503;SDS011;743;47.076;15.494;2023-02-18T06:07:07;300.63;;;133.68;;
1503;SDS011;743;47.076;15.494;2023-02-18T06:09:34;273.85;;;132.55;;
1503;SDS011;743;47.076;15.494;2023-02-18T06:12:02;297.13;;;130.75;;
1503;SDS011;743;47.076;15.494;2023-02-18T06:14:33;295.40;;;133.82;;
1503;SDS011;743;47.076;15.494;2023-02-18T06:17:04;297.17;;;134.13;;
1503;SDS011;743;47.076;15.494;2023-02-18T06:19:31;293.00;;;138.82;;
1503;SDS011;743;47.076;15.494;2023-02-18T06:22:02;321.30;;;139.02;;
1503;SDS011;743;47.076;15.494;2023-02-18T06:24:30;276.17;;;127.45;;
1503;SDS011;743;47.076;15.494;2023-02-18T06:26:59;301.50;;;136.23;;
1503;SDS011;743;47.076;15.494;2023-02-18T06:29:27;213.82;;;98.18;;
1503;SDS011;743;47.076;15.494;2023-02-18T06:31:55;306.48;;;128.32;;
1503;SDS011;743;47.076;15.494;2023-02-18T06:34:25;305.48;;;134.38;;
1503;SDS011;743;47.076;15.494;2023-02-18T06:36:55;333.73;;;146.40;;
1503;SDS011;743;47.076;15.494;2023-02-18T06:39:28;303.33;;;129.35;;
1503;SDS011;743;47.076;15.494;2023-02-18T06:41:59;311.63;;;139.52;;
1503;SDS011;743;47.076;15.494;2023-02-18T06:44:27;307.77;;;148.68;;
1503;SDS011;743;47.076;15.494;2023-02-18T06:46:56;214.88;;;91.43;;
1503;SDS011;743;47.076;15.494;2023-02-18T06:49:27;309.63;;;131.77;;
1503;SDS011;743;47.076;15.494;2023-02-18T06:51:56;309.10;;;132.07;;
1503;SDS011;743;47.076;15.494;2023-02-18T06:54:24;305.23;;;132.88;;
1503;SDS011;743;47.076;15.494;2023-02-18T06:56:54;322.73;;;148.70;;
1503;SDS011;743;47.076;15.494;2023-02-18T06:59:21;313.85;;;134.60;;
1503;SDS011;743;47.076;15.494;2023-02-18T07:01:49;317.10;;;139.35;;
1503;SDS011;743;47.076;15.494;2023-02-18T07:04:22;318.10;;;140.50;;
1503;SDS011;743;47.076;15.494;2023-02-18T07:06:57;305.40;;;134.02;;
1503;SDS011;743;47.076;15.494;2023-02-18T07:09:29;311.67;;;142.38;;
1503;SDS011;743;47.076;15.494;2023-02-18T07:11:59;309.95;;;138.25;;
1503;SDS011;743;47.076;15.494;2023-02-18T07:14:28;324.90;;;146.80;;
1503;SDS011;743;47.076;15.494;2023-02-18T07:16:56;303.83;;;139.25;;
1503;SDS011;743;47.076;15.494;2023-02-18T07:19:24;320.50;;;143.93;;
1503;SDS011;743;47.076;15.494;2023-02-18T07:26:52;300.45;;;137.52;;
1503;SDS011;743;47.076;15.494;2023-02-18T07:29:21;296.95;;;137.32;;
1503;SDS011;743;47.076;15.494;2023-02-18T07:31:48;324.05;;;141.68;;
1503;SDS011;743;47.076;15.494;2023-02-18T07:34:16;325.90;;;143.45;;
1503;SDS011;743;47.076;15.494;2023-02-18T07:36:44;323.90;;;141.85;;
1503;SDS011;743;47.076;15.494;2023-02-18T07:39:15;349.13;;;155.82;;
1503;SDS011;743;47.076;15.494;2023-02-18T07:41:45;338.50;;;147.00;;
1503;SDS011;743;47.076;15.494;2023-02-18T07:44:14;331.98;;;148.55;;
1503;SDS011;743;47.076;15.494;2023-02-18T07:46:44;364.00;;;157.27;;
1503;SDS011;743;47.076;15.494;2023-02-18T07:49:13;343.05;;;155.50;;
1503;SDS011;743;47.076;15.494;2023-02-18T07:51:41;341.08;;;150.60;;
1503;SDS011;743;47.076;15.494;2023-02-18T07:54:09;341.88;;;157.45;;
1503;SDS011;743;47.076;15.494;2023-02-18T07:56:38;352.58;;;157.80;;
1503;SDS011;743;47.076;15.494;2023-02-18T07:59:10;346.25;;;160.90;;
1503;SDS011;743;47.076;15.494;2023-02-18T08:01:40;348.15;;;153.70;;
1503;SDS011;743;47.076;15.494;2023-02-18T08:04:12;356.13;;;165.70;;
1503;SDS011;743;47.076;15.494;2023-02-18T08:06:41;351.25;;;160.52;;
1503;SDS011;743;47.076;15.494;2023-02-18T08:09:12;363.40;;;163.55;;
1503;SDS011;743;47.076;15.494;2023-02-18T08:11:42;342.35;;;153.57;;
1503;SDS011;743;47.076;15.494;2023-02-18T08:14:10;355.83;;;157.45;;
1503;SDS011;743;47.076;15.494;2023-02-18T08:16:39;356.20;;;161.20;;
1503;SDS011;743;47.076;15.494;2023-02-18T08:19:10;354.63;;;157.48;;
1503;SDS011;743;47.076;15.494;2023-02-18T08:21:41;360.40;;;157.10;;
1503;SDS011;743;47.076;15.494;2023-02-18T08:24:11;350.23;;;165.95;;
1503;SDS011;743;47.076;15.494;2023-02-18T08:26:39;244.63;;;108.10;;
1503;SDS011;743;47.076;15.494;2023-02-18T08:29:11;344.17;;;156.23;;
1503;SDS011;743;47.076;15.494;2023-02-18T08:31:41;349.58;;;158.82;;
1503;SDS011;743;47.076;15.494;2023-02-18T08:34:12;353.45;;;163.55;;
1503;SDS011;743;47.076;15.494;2023-02-18T08:36:42;242.43;;;112.53;;
1503;SDS011;743;47.076;15.494;2023-02-18T08:39:14;344.90;;;157.38;;
1503;SDS011;743;47.076;15.494;2023-02-18T08:41:47;347.27;;;162.23;;
1503;SDS011;743;47.076;15.494;2023-02-18T08:44:15;366.75;;;182.00;;
1503;SDS011;743;47.076;15.494;2023-02-18T08:46:42;333.10;;;163.53;;
1503;SDS011;743;47.076;15.494;2023-02-18T08:49:13;337.23;;;165.63;;
1503;SDS011;743;47.076;15.494;2023-02-18T08:51:45;353.17;;;173.02;;
1503;SDS011;743;47.076;15.494;2023-02-18T08:54:13;318.37;;;157.10;;
1503;SDS011;743;47.076;15.494;2023-02-18T08:56:43;357.40;;;170.70;;
1503;SDS011;743;47.076;15.494;2023-02-18T08:59:13;342.70;;;172.27;;
1503;SDS011;743;47.076;15.494;2023-02-18T09:01:41;351.48;;;167.13;;
1503;SDS011;743;47.076;15.494;2023-02-18T09:04:11;349.80;;;168.60;;
1503;SDS011;743;47.076;15.494;2023-02-18T09:06:39;325.00;;;165.55;;
1503;SDS011;743;47.076;15.494;2023-02-18T09:09:09;343.58;;;171.70;;
1503;SDS011;743;47.076;15.494;2023-02-18T09:11:37;342.60;;;174.07;;
1503;SDS011;743;47.076;15.494;2023-02-18T09:14:11;334.92;;;171.07;;
1503;SDS011;743;47.076;15.494;2023-02-18T09:16:39;364.00;;;181.43;;
1503;SDS011;743;47.076;15.494;2023-02-18T09:19:09;373.48;;;192.80;;
1503;SDS011;743;47.076;15.494;2023-02-18T09:21:38;342.30;;;173.60;;
1503;SDS011;743;47.076;15.494;2023-02-18T09:24:06;375.15;;;190.77;;
1503;SDS011;743;47.076;15.494;2023-02-18T09:26:35;350.88;;;180.27;;
1503;SDS011;743;47.076;15.494;2023-02-18T09:29:05;354.27;;;177.13;;
1503;SDS011;743;47.076;15.494;2023-02-18T09:31:37;354.90;;;176.52;;
1503;SDS011;743;47.076;15.494;2023-02-18T09:34:05;359.58;;;179.98;;
1503;SDS011;743;47.076;15.494;2023-02-18T09:36:33;364.20;;;185.07;;
1503;SDS011;743;47.076;15.494;2023-02-18T09:39:07;359.20;;;181.63;;
1503;SDS011;743;47.076;15.494;2023-02-18T09:41:42;359.67;;;185.07;;
1503;SDS011;743;47.076;15.494;2023-02-18T09:44:17;361.67;;;189.18;;
1503;SDS011;743;47.076;15.494;2023-02-18T09:46:53;264.53;;;135.73;;
1503;SDS011;743;47.076;15.494;2023-02-18T09:49:25;370.65;;;187.48;;
1503;SDS011;743;47.076;15.494;2023-02-18T09:51:54;395.17;;;199.57;;
1503;SDS011;743;47.076;15.494;2023-02-18T09:54:42;385.20;;;195.80;;
1503;SDS011;743;47.076;15.494;2023-02-18T09:57:14;375.73;;;200.23;;
1503;SDS011;743;47.076;15.494;2023-02-18T09:59:54;412.75;;;203.50;;
1503;SDS011;743;47.076;15.494;2023-02-18T10:02:26;382.08;;;204.77;;
1503;SDS011;743;47.076;15.494;2023-02-18T10:04:56;408.15;;;209.88;;
1503;SDS011;743;47.076;15.494;2023-02-18T10:07:25;421.75;;;222.80;;
1503;SDS011;743;47.076;15.494;2023-02-18T10:10:00;417.05;;;216.45;;
1503;SDS011;743;47.076;15.494;2023-02-18T10:12:38;437.80;;;226.88;;
1503;SDS011;743;47.076;15.494;2023-02-18T10:15:16;427.63;;;221.38;;
1503;SDS011;743;47.076;15.494;2023-02-18T10:17:52;441.13;;;230.80;;
1503;SDS011;743;47.076;15.494;2023-02-18T10:20:24;435.60;;;233.98;;
1503;SDS011;743;47.076;15.494;2023-02-18T10:22:57;427.45;;;233.35;;
1503;SDS011;743;47.076;15.494;2023-02-18T10:25:31;431.05;;;239.45;;
1503;SDS011;743;47.076;15.494;2023-02-18T10:27:59;415.90;;;242.63;;
1503;SDS011;743;47.076;15.494;2023-02-18T10:30:32;402.98;;;240.65;;
1503;SDS011;743;47.076;15.494;2023-02-18T10:33:10;463.25;;;258.20;;
1503;SDS011;743;47.076;15.494;2023-02-18T10:35:53;439.25;;;252.40;;
1503;SDS011;743;47.076;15.494;2023-02-18T10:38:32;422.38;;;252.35;;
1503;SDS011;743;47.076;15.494;2023-02-18T10:41:12;432.15;;;252.45;;
1503;SDS011;743;47.076;15.494;2023-02-18T10:43:47;457.75;;;268.20;;
1503;SDS011;743;47.076;15.494;2023-02-18T10:49:11;458.60;;;267.83;;
1503;SDS011;743;47.076;15.494;2023-02-18T10:51:53;441.75;;;271.05;;
1503;SDS011;743;47.076;15.494;2023-02-18T10:54:23;467.83;;;282.83;;
1503;SDS011;743;47.076;15.494;2023-02-18T10:56:52;316.27;;;190.45;;
1503;SDS011;743;47.076;15.494;2023-02-18T10:59:24;471.52;;;287.00;;
1503;SDS011;743;47.076;15.494;2023-02-18T11:01:57;450.02;;;280.52;;
1503;SDS011;743;47.076;15.494;2023-02-18T11:04:27;487.00;;;290.15;;
1503;SDS011;743;47.076;15.494;2023-02-18T11:07:04;495.65;;;304.60;;
1503;SDS011;743;47.076;15.494;2023-02-18T11:09:41;469.83;;;290.33;;
1503;SDS011;743;47.076;15.494;2023-02-18T11:12:18;477.13;;;300.13;;
1503;SDS011;743;47.076;15.494;2023-02-18T11:15:03;480.73;;;296.40;;
1503;SDS011;743;47.076;15.494;2023-02-18T11:17:36;506.73;;;304.23;;
1503;SDS011;743;47.076;15.494;2023-02-18T11:20:19;484.90;;;294.10;;
1503;SDS011;743;47.076;15.494;2023-02-18T11:23:11;491.15;;;294.70;;
1503;SDS011;743;47.076;15.494;2023-02-18T11:25:52;502.77;;;310.90;;
1503;SDS011;743;47.076;15.494;2023-02-18T11:28:29;512.80;;;307.58;;
1503;SDS011;743;47.076;15.494;2023-02-18T11:31:07;588.60;;;360.58;;
1503;SDS011;743;47.076;15.494;2023-02-18T11:33:49;524.70;;;329.52;;
1503;SDS011;743;47.076;15.494;2023-02-18T11:36:21;554.53;;;331.60;;
1503;SDS011;743;47.076;15.494;2023-02-18T11:38:51;543.63;;;313.38;;
1503;SDS011;743;47.076;15.494;2023-02-18T11:41:28;548.42;;;328.20;;
1503;SDS011;743;47.076;15.494;2023-02-18T11:44:03;518.28;;;305.02;;
1503;SDS011;743;47.076;15.494;2023-02-18T11:46:34;566.75;;;317.02;;
1503;SDS011;743;47.076;15.494;2023-02-18T11:49:20;540.47;;;317.45;;
1503;SDS011;743;47.076;15.494;2023-02-18T11:51:51;544.38;;;322.13;;
1503;SDS011;743;47.076;15.494;2023-02-18T11:54:22;522.97;;;318.52;;
1503;SDS011;743;47.076;15.494;2023-02-18T11:56:56;525.92;;;312.70;;
1503;SDS011;743;47.076;15.494;2023-02-18T11:59:25;540.22;;;318.20;;
1503;SDS011;743;47.076;15.494;2023-02-18T12:01:56;536.97;;;317.50;;
1503;SDS011;743;47.076;15.494;2023-02-18T12:04:36;544.38;;;310.83;;
1503;SDS011;743;47.076;15.494;2023-02-18T12:07:16;556.13;;;318.38;;
1503;SDS011;743;47.076;15.494;2023-02-18T12:09:50;551.45;;;324.92;;
1503;SDS011;743;47.076;15.494;2023-02-18T12:12:25;568.92;;;331.60;;
1503;SDS011;743;47.076;15.494;2023-02-18T12:14:56;552.75;;;331.38;;
1503;SDS011;743;47.076;15.494;2023-02-18T12:17:34;571.00;;;338.38;;
1503;SDS011;743;47.076;15.494;2023-02-18T12:20:21;591.60;;;355.70;;
1503;SDS011;743;47.076;15.494;2023-02-18T12:23:07;607.78;;;344.45;;
1503;SDS011;743;47.076;15.494;2023-02-18T12:28:25;634.60;;;345.35;;
1503;SDS011;743;47.076;15.494;2023-02-18T12:31:10;613.92;;;350.90;;
1503;SDS011;743;47.076;15.494;2023-02-18T12:33:56;641.53;;;361.08;;
1503;SDS011;743;47.076;15.494;2023-02-18T12:36:49;634.30;;;365.48;;
1503;SDS011;743;47.076;15.494;2023-02-18T12:39:30;634.17;;;370.88;;
1503;SDS011;743;47.076;15.494;2023-02-18T12:42:14;649.22;;;358.88;;
1503;SDS011;743;47.076;15.494;2023-02-18T12:44:59;647.45;;;363.77;;
1503;SDS011;743;47.076;15.494;2023-02-18T12:47:59;682.08;;;368.33;;
1503;SDS011;743;47.076;15.494;2023-02-18T12:50:49;710.45;;;367.10;;
1503;SDS011;743;47.076;15.494;2023-02-18T12:56:26;694.83;;;345.13;;
1503;SDS011;743;47.076;15.494;2023-02-18T12:59:33;683.78;;;323.52;;
1503;SDS011;743;47.076;15.494;2023-02-18T13:02:36;663.65;;;304.05;;
1503;SDS011;743;47.076;15.494;2023-02-18T13:05:17;645.85;;;294.67;;
1503;SDS011;743;47.076;15.494;2023-02-18T13:07:54;648.38;;;306.88;;
1503;SDS011;743;47.076;15.494;2023-02-18T13:13:49;721.33;;;366.80;;
1503;SDS011;743;47.076;15.494;2023-02-18T13:16:28;709.15;;;361.83;;
1503;SDS011;743;47.076;15.494;2023-02-18T13:19:01;709.40;;;368.27;;
1503;SDS011;743;47.076;15.494;2023-02-18T13:21:42;698.33;;;356.13;;
1503;SDS011;743;47.076;15.494;2023-02-18T13:24:13;701.33;;;362.85;;
1503;SDS011;743;47.076;15.494;2023-02-18T13:26:55;704.00;;;373.27;;
1503;SDS011;743;47.076;15.494;2023-02-18T13:29:36;699.28;;;357.80;;
1503;SDS011;743;47.076;15.494;2023-02-18T13:32:11;699.92;;;346.65;;
1503;SDS011;743;47.076;15.494;2023-02-18T13:34:46;702.33;;;365.23;;
1503;SDS011;743;47.076;15.494;2023-02-18T13:37:21;702.88;;;377.10;;
1503;SDS011;743;47.076;15.494;2023-02-18T13:39:57;698.45;;;365.30;;
1503;SDS011;743;47.076;15.494;2023-02-18T13:45:22;699.10;;;358.65;;
1503;SDS011;743;47.076;15.494;2023-02-18T13:47:52;705.13;;;370.40;;
1503;SDS011;743;47.076;15.494;2023-02-18T13:50:23;704.65;;;365.52;;
1503;SDS011;743;47.076;15.494;2023-02-18T13:53:14;703.42;;;363.15;;
1503;SDS011;743;47.076;15.494;2023-02-18T13:55:50;710.72;;;372.30;;
1503;SDS011;743;47.076;15.494;2023-02-18T13:58:33;704.55;;;370.23;;
1503;SDS011;743;47.076;15.494;2023-02-18T14:01:18;708.40;;;380.38;;
1503;SDS011;743;47.076;15.494;2023-02-18T14:03:53;710.72;;;377.20;;
1503;SDS011;743;47.076;15.494;2023-02-18T14:06:25;703.47;;;379.10;;
1503;SDS011;743;47.076;15.494;2023-02-18T14:09:02;719.00;;;380.63;;
1503;SDS011;743;47.076;15.494;2023-02-18T14:11:46;722.38;;;393.90;;
1503;SDS011;743;47.076;15.494;2023-02-18T14:14:49;706.55;;;381.25;;
1503;SDS011;743;47.076;15.494;2023-02-18T14:17:29;724.65;;;394.25;;
1503;SDS011;743;47.076;15.494;2023-02-18T14:22:55;714.10;;;391.90;;
1503;SDS011;743;47.076;15.494;2023-02-18T14:25:32;739.65;;;421.75;;
1503;SDS011;743;47.076;15.494;2023-02-18T14:31:32;727.95;;;411.75;;
1503;SDS011;743;47.076;15.494;2023-02-18T14:40:25;713.60;;;403.20;;
1503;SDS011;743;47.076;15.494;2023-02-18T14:43:11;713.55;;;400.92;;
1503;SDS011;743;47.076;15.494;2023-02-18T14:45:59;719.22;;;416.30;;
1503;SDS011;743;47.076;15.494;2023-02-18T14:51:28;710.78;;;398.70;;
1503;SDS011;743;47.076;15.494;2023-02-18T14:54:02;714.22;;;408.05;;
1503;SDS011;743;47.076;15.494;2023-02-18T14:56:31;712.70;;;402.77;;
1503;SDS011;743;47.076;15.494;2023-02-18T14:59:09;719.70;;;411.13;;
1503;SDS011;743;47.076;15.494;2023-02-18T15:01:48;717.00;;;407.75;;
1503;SDS011;743;47.076;15.494;2023-02-18T15:04:18;707.90;;;411.50;;
1503;SDS011;743;47.076;15.494;2023-02-18T15:06:57;693.28;;;392.42;;
1503;SDS011;743;47.076;15.494;2023-02-18T15:09:28;701.90;;;399.92;;
1503;SDS011;743;47.076;15.494;2023-02-18T15:11:57;690.45;;;392.88;;
1503;SDS011;743;47.076;15.494;2023-02-18T15:14:29;693.47;;;394.10;;
1503;SDS011;743;47.076;15.494;2023-02-18T15:17:01;687.17;;;388.35;;
1503;SDS011;743;47.076;15.494;2023-02-18T15:19:34;685.65;;;397.00;;
1503;SDS011;743;47.076;15.494;2023-02-18T15:22:12;679.53;;;390.80;;
1503;SDS011;743;47.076;15.494;2023-02-18T15:24:43;677.30;;;398.02;;
1503;SDS011;743;47.076;15.494;2023-02-18T15:27:13;677.47;;;391.52;;
1503;SDS011;743;47.076;15.494;2023-02-18T15:29:47;670.80;;;390.50;;
1503;SDS011;743;47.076;15.494;2023-02-18T15:32:18;660.28;;;379.27;;
1503;SDS011;743;47.076;15.494;2023-02-18T15:34:50;658.10;;;373.10;;
1503;SDS011;743;47.076;15.494;2023-02-18T15:37:23;654.80;;;361.73;;
1503;SDS011;743;47.076;15.494;2023-02-18T15:39:51;663.45;;;368.08;;
1503;SDS011;743;47.076;15.494;2023-02-18T15:42:22;657.03;;;368.20;;
1503;SDS011;743;47.076;15.494;2023-02-18T15:44:54;658.90;;;357.10;;
1503;SDS011;743;47.076;15.494;2023-02-18T15:47:25;667.00;;;363.67;;
1503;SDS011;743;47.076;15.494;2023-02-18T15:49:58;654.22;;;347.80;;
1503;SDS011;743;47.076;15.494;2023-02-18T15:52:29;660.25;;;355.95;;
1503;SDS011;743;47.076;15.494;2023-02-18T15:55:05;657.67;;;358.48;;
1503;SDS011;743;47.076;15.494;2023-02-18T15:57:39;645.42;;;342.17;;
1503;SDS011;743;47.076;15.494;2023-02-18T16:00:12;647.00;;;341.73;;